createdAt,value
2023-02-02T00:00:59.508Z,93.23
2023-02-02T00:03:28.730Z,95.73
2023-02-02T00:05:58.011Z,93.60
2023-02-02T00:08:27.207Z,96.33
2023-02-02T00:10:56.322Z,96.03
2023-02-02T00:13:25.449Z,100.30
2023-02-02T00:15:56.484Z,101.33
2023-02-02T00:18:35.145Z,99.80
2023-02-02T00:21:05.119Z,98.23
2023-02-02T00:23:34.210Z,94.20
2023-02-02T00:26:03.246Z,96.77
2023-02-02T00:28:32.399Z,92.97
2023-02-02T00:31:03.023Z,93.97
2023-02-02T00:33:34.379Z,93.07
2023-02-02T00:36:04.161Z,89.73
2023-02-02T00:38:37.680Z,89.27
2023-02-02T00:41:07.562Z,87.83
2023-02-02T00:43:36.820Z,91.10
2023-02-02T00:46:06.546Z,90.00
2023-02-02T00:48:36.322Z,87.07
2023-02-02T00:51:05.638Z,91.10
2023-02-02T00:53:34.262Z,87.10
2023-02-02T00:56:02.843Z,89.63
2023-02-02T00:58:31.453Z,87.80
2023-02-02T01:01:00.046Z,89.83
2023-02-02T01:03:30.045Z,90.77
2023-02-02T01:05:58.622Z,90.03
2023-02-02T01:08:27.324Z,90.30
2023-02-02T01:10:55.920Z,88.63
2023-02-02T01:13:24.512Z,89.23
2023-02-02T01:15:57.103Z,91.93
2023-02-02T01:18:25.981Z,96.30
2023-02-02T01:21:00.621Z,90.07
2023-02-02T01:23:29.507Z,91.97
2023-02-02T01:25:59.379Z,91.97
2023-02-02T01:28:29.162Z,87.50
2023-02-02T01:30:58.422Z,83.63
2023-02-02T01:33:27.317Z,82.97
2023-02-02T01:35:57.540Z,86.07
2023-02-02T01:38:27.742Z,83.57
2023-02-02T01:40:59.139Z,81.83
2023-02-02T01:43:30.798Z,87.47
2023-02-02T01:46:00.330Z,86.70
2023-02-02T01:48:33.654Z,87.10
2023-02-02T01:51:06.252Z,87.87
2023-02-02T01:53:37.941Z,89.77
2023-02-02T01:56:09.531Z,91.93
2023-02-02T01:58:41.513Z,94.40
2023-02-02T02:01:11.457Z,93.43
2023-02-02T02:03:41.010Z,94.17
2023-02-02T02:06:12.857Z,93.73
2023-02-02T02:08:48.372Z,97.00
2023-02-02T02:11:17.121Z,97.93
2023-02-02T02:14:03.132Z,98.97
2023-02-02T02:16:44.723Z,97.60
2023-02-02T02:19:36.540Z,99.30
2023-02-02T02:22:29.200Z,99.67
2023-02-02T02:25:55.582Z,94.80
2023-02-02T02:28:53.035Z,96.27
2023-02-02T02:31:57.260Z,99.43
2023-02-02T02:34:34.441Z,93.67
2023-02-02T02:37:11.799Z,94.63
2023-02-02T02:39:48.460Z,89.43
2023-02-02T02:42:21.900Z,89.73
2023-02-02T02:44:52.472Z,87.90
2023-02-02T02:47:24.169Z,87.43
2023-02-02T02:49:53.030Z,86.57
2023-02-02T02:52:21.621Z,82.60
2023-02-02T02:54:52.845Z,85.93
2023-02-02T02:57:41.364Z,84.43
2023-02-02T03:00:26.019Z,83.83
2023-02-02T03:03:05.638Z,83.40
2023-02-02T03:05:39.700Z,83.43
2023-02-02T03:08:13.758Z,83.50
2023-02-02T03:10:45.560Z,63.67
2023-02-02T03:13:15.583Z,81.50
2023-02-02T03:15:45.617Z,80.47
2023-02-02T03:18:18.746Z,77.90
2023-02-02T03:20:47.635Z,76.80
2023-02-02T03:23:16.702Z,74.60
2023-02-02T03:25:45.712Z,77.50
2023-02-02T03:28:14.609Z,74.87
2023-02-02T03:30:44.271Z,74.30
2023-02-02T03:33:14.301Z,80.97
2023-02-02T03:35:44.433Z,77.50
2023-02-02T03:38:13.811Z,77.00
2023-02-02T03:40:42.607Z,74.23
2023-02-02T03:43:12.412Z,77.00
2023-02-02T03:45:41.659Z,75.20
2023-02-02T03:48:10.270Z,74.23
2023-02-02T03:50:38.976Z,75.93
2023-02-02T03:53:09.034Z,76.43
2023-02-02T03:55:39.110Z,80.47
2023-02-02T03:58:10.282Z,82.80
2023-02-02T04:00:38.994Z,85.53
2023-02-02T04:03:07.635Z,83.70
2023-02-02T04:05:36.302Z,81.33
2023-02-02T04:08:05.011Z,81.67
2023-02-02T04:10:34.995Z,79.47
2023-02-02T04:13:04.063Z,78.87
2023-02-02T04:15:32.668Z,76.57
2023-02-02T04:18:01.240Z,75.53
2023-02-02T04:20:29.814Z,79.53
2023-02-02T04:22:58.521Z,73.70
2023-02-02T04:25:27.514Z,78.03
2023-02-02T04:27:57.560Z,75.57
2023-02-02T04:30:26.172Z,78.47
2023-02-02T04:32:55.931Z,77.50
2023-02-02T04:35:24.959Z,77.80
2023-02-02T04:37:53.711Z,77.63
2023-02-02T04:40:22.254Z,73.10
2023-02-02T04:42:50.773Z,76.50
2023-02-02T04:45:20.784Z,76.23
2023-02-02T04:47:49.374Z,80.70
2023-02-02T04:50:18.331Z,78.10
2023-02-02T04:52:47.281Z,81.30
2023-02-02T04:55:16.174Z,79.50
2023-02-02T04:57:44.949Z,76.57
2023-02-02T05:00:14.735Z,81.43
2023-02-02T05:02:44.992Z,78.87
2023-02-02T05:05:15.502Z,75.90
2023-02-02T05:07:44.120Z,76.63
2023-02-02T05:10:13.361Z,79.40
2023-02-02T05:12:42.015Z,77.80
2023-02-02T05:15:11.881Z,78.50
2023-02-02T05:17:40.433Z,77.17
2023-02-02T05:20:11.935Z,76.33
2023-02-02T05:22:40.472Z,74.80
2023-02-02T05:25:10.149Z,74.10
2023-02-02T05:27:39.251Z,72.07
2023-02-02T05:30:09.103Z,73.40
2023-02-02T05:32:37.719Z,70.87
2023-02-02T05:35:07.274Z,69.97
2023-02-02T05:37:37.221Z,72.67
2023-02-02T05:40:06.667Z,69.10
2023-02-02T05:42:35.216Z,68.20
2023-02-02T05:45:03.840Z,69.43
2023-02-02T05:47:32.367Z,68.67
2023-02-02T05:50:02.539Z,67.63
2023-02-02T05:52:36.698Z,66.43
2023-02-02T05:55:07.444Z,68.60
2023-02-02T05:57:36.027Z,68.63
2023-02-02T06:00:05.591Z,71.10
2023-02-02T06:02:40.712Z,71.70
2023-02-02T06:05:09.894Z,71.47
2023-02-02T06:07:38.544Z,72.40
2023-02-02T06:10:09.213Z,66.67
2023-02-02T06:12:37.787Z,68.57
2023-02-02T06:15:07.432Z,73.17
2023-02-02T06:17:36.010Z,78.77
2023-02-02T06:20:04.912Z,75.53
2023-02-02T06:22:33.990Z,76.80
2023-02-02T06:25:04.443Z,79.13
2023-02-02T06:27:34.535Z,81.03
2023-02-02T06:30:03.171Z,80.53
2023-02-02T06:32:31.816Z,83.57
2023-02-02T06:35:00.437Z,87.20
2023-02-02T06:37:30.689Z,97.70
2023-02-02T06:39:59.394Z,92.13
2023-02-02T06:42:28.103Z,96.97
2023-02-02T06:44:58.083Z,116.83
2023-02-02T06:47:27.025Z,123.63
2023-02-02T06:49:55.802Z,111.03
2023-02-02T06:52:24.516Z,112.77
2023-02-02T06:54:53.075Z,112.67
2023-02-02T06:57:21.710Z,111.30
2023-02-02T06:59:51.273Z,111.77
2023-02-02T07:02:23.428Z,112.97
2023-02-02T07:04:52.980Z,127.87
2023-02-02T07:07:21.568Z,123.80
2023-02-02T07:09:58.051Z,115.70
2023-02-02T07:12:28.054Z,119.90
2023-02-02T07:14:56.671Z,116.67
2023-02-02T07:17:26.787Z,116.43
2023-02-02T07:19:55.414Z,112.67
2023-02-02T07:22:23.993Z,116.57
2023-02-02T07:24:54.664Z,110.37
2023-02-02T07:27:23.232Z,115.93
2023-02-02T07:29:51.855Z,115.57
2023-02-02T07:32:20.431Z,112.80
2023-02-02T07:34:50.458Z,112.97
2023-02-02T07:37:19.452Z,112.03
2023-02-02T07:39:48.111Z,115.53
2023-02-02T07:42:16.622Z,116.93
2023-02-02T07:44:45.175Z,113.87
2023-02-02T07:47:13.827Z,126.13
2023-02-02T07:49:42.946Z,118.80
2023-02-02T07:52:12.945Z,127.73
2023-02-02T07:54:41.533Z,124.57
2023-02-02T07:57:10.133Z,125.53
2023-02-02T07:59:38.692Z,125.03
2023-02-02T08:02:07.307Z,128.13
2023-02-02T08:04:35.905Z,122.17
2023-02-02T08:07:04.682Z,120.57
2023-02-02T08:09:34.666Z,123.97
2023-02-02T08:12:03.294Z,118.00
2023-02-02T08:14:32.505Z,122.40
2023-02-02T08:17:01.073Z,120.53
2023-02-02T08:19:29.671Z,123.20
2023-02-02T08:21:58.203Z,121.27
2023-02-02T08:24:29.144Z,118.10
2023-02-02T08:26:59.169Z,114.90
2023-02-02T08:29:27.786Z,114.37
2023-02-02T08:31:56.385Z,116.27
2023-02-02T08:34:24.941Z,110.27
2023-02-02T08:36:53.582Z,115.50
2023-02-02T08:39:22.772Z,105.50
2023-02-02T08:41:51.281Z,106.00
2023-02-02T08:44:22.393Z,109.40
2023-02-02T08:46:53.617Z,111.13
2023-02-02T08:49:22.699Z,109.40
2023-02-02T08:51:51.171Z,101.90
2023-02-02T08:54:19.677Z,106.70
2023-02-02T08:56:48.393Z,107.13
2023-02-02T08:59:16.935Z,112.77
2023-02-02T09:01:46.894Z,113.90
2023-02-02T09:04:17.558Z,113.07
2023-02-02T09:06:46.304Z,108.83
2023-02-02T09:09:16.617Z,111.83
2023-02-02T09:11:45.836Z,108.40
2023-02-02T09:14:15.579Z,104.77
2023-02-02T09:16:44.465Z,107.63
2023-02-02T09:19:14.588Z,107.40
2023-02-02T09:21:43.134Z,109.73
2023-02-02T09:24:13.220Z,109.63
2023-02-02T09:26:41.912Z,110.10
2023-02-02T09:29:13.801Z,111.57
2023-02-02T09:31:42.705Z,103.10
2023-02-02T09:34:14.815Z,106.70
2023-02-02T09:36:44.595Z,102.73
2023-02-02T09:39:15.171Z,100.90
2023-02-02T09:42:03.844Z,100.57
2023-02-02T09:44:57.166Z,101.00
2023-02-02T09:47:32.906Z,103.20
2023-02-02T09:50:06.425Z,104.17
2023-02-02T09:52:42.810Z,101.90
2023-02-02T09:55:19.496Z,106.27
2023-02-02T09:57:53.191Z,103.50
2023-02-02T10:00:30.762Z,100.40
2023-02-02T10:03:04.031Z,103.30
2023-02-02T10:05:46.042Z,100.50
2023-02-02T10:08:33.638Z,100.20
2023-02-02T10:11:12.648Z,103.57
2023-02-02T10:13:43.837Z,99.30
2023-02-02T10:16:18.377Z,100.93
2023-02-02T10:18:53.060Z,100.60
2023-02-02T10:21:30.540Z,101.53
2023-02-02T10:24:01.965Z,97.80
2023-02-02T10:26:38.177Z,94.93
2023-02-02T10:29:19.784Z,97.90
2023-02-02T10:31:59.158Z,99.47
2023-02-02T10:34:38.361Z,96.90
2023-02-02T10:37:28.417Z,88.70
2023-02-02T10:40:12.814Z,92.70
2023-02-02T10:43:12.690Z,93.53
2023-02-02T10:45:45.012Z,91.23
2023-02-02T10:48:16.842Z,92.97
2023-02-02T10:50:49.530Z,92.60
2023-02-02T10:53:20.414Z,88.87
2023-02-02T10:55:55.046Z,85.80
2023-02-02T10:58:29.330Z,89.80
2023-02-02T11:01:02.272Z,88.10
2023-02-02T11:03:33.099Z,87.97
2023-02-02T11:06:21.823Z,84.53
2023-02-02T11:08:56.960Z,86.10
2023-02-02T11:11:27.641Z,88.07
2023-02-02T11:14:00.460Z,85.87
2023-02-02T11:16:42.133Z,86.67
2023-02-02T11:19:25.371Z,86.60
2023-02-02T11:21:57.079Z,84.20
2023-02-02T11:24:30.143Z,84.53
2023-02-02T11:27:02.088Z,88.23
2023-02-02T11:29:33.016Z,88.00
2023-02-02T11:32:20.171Z,89.97
2023-02-02T11:34:48.796Z,85.90
2023-02-02T11:37:22.831Z,89.10
2023-02-02T11:39:54.016Z,88.83
2023-02-02T11:42:25.260Z,91.60
2023-02-02T11:44:55.762Z,86.67
2023-02-02T11:47:28.721Z,83.60
2023-02-02T11:49:59.348Z,84.03
2023-02-02T11:52:32.710Z,84.87
2023-02-02T11:55:10.795Z,86.17
2023-02-02T11:57:39.491Z,84.50
2023-02-02T12:00:17.649Z,81.93
2023-02-02T12:02:48.649Z,84.43
2023-02-02T12:05:36.333Z,88.67
2023-02-02T12:08:05.179Z,82.20
2023-02-02T12:10:43.169Z,79.23
2023-02-02T12:13:20.968Z,81.43
2023-02-02T12:15:55.662Z,83.70
2023-02-02T12:18:39.442Z,80.27
2023-02-02T12:21:13.861Z,82.73
2023-02-02T12:23:56.451Z,79.20
2023-02-02T12:26:30.854Z,81.83
2023-02-02T12:29:23.611Z,80.63
2023-02-02T12:32:07.740Z,78.40
2023-02-02T12:34:49.812Z,82.90
2023-02-02T12:37:32.335Z,80.47
2023-02-02T12:40:19.836Z,89.23
2023-02-02T12:43:04.124Z,83.93
2023-02-02T12:45:53.435Z,82.33
2023-02-02T12:48:35.911Z,79.90
2023-02-02T12:51:20.893Z,79.77
2023-02-02T12:54:32.711Z,80.60
2023-02-02T12:57:12.212Z,80.10
2023-02-02T13:00:05.253Z,78.33
2023-02-02T13:02:40.334Z,77.87
2023-02-02T13:05:34.043Z,81.53
2023-02-02T13:08:06.782Z,80.47
2023-02-02T13:10:41.585Z,79.17
2023-02-02T13:13:15.277Z,78.27
2023-02-02T13:15:48.718Z,75.23
2023-02-02T13:18:22.305Z,76.80
2023-02-02T13:20:56.522Z,76.20
2023-02-02T13:23:28.763Z,78.13
2023-02-02T13:26:03.524Z,75.43
2023-02-02T13:28:41.593Z,75.23
2023-02-02T13:31:17.941Z,75.10
2023-02-02T13:33:50.590Z,75.20
2023-02-02T13:36:26.211Z,76.47
2023-02-02T13:38:58.935Z,77.10
2023-02-02T13:41:29.112Z,77.83
2023-02-02T13:44:02.903Z,78.83
2023-02-02T13:46:38.082Z,78.67
2023-02-02T13:49:13.872Z,78.63
2023-02-02T13:51:55.169Z,78.37
2023-02-02T13:54:54.032Z,78.93
2023-02-02T13:57:53.083Z,78.40
2023-02-02T14:00:24.453Z,77.00
2023-02-02T14:02:56.635Z,77.37
2023-02-02T14:05:29.111Z,77.37
2023-02-02T14:08:03.424Z,77.27
2023-02-02T14:10:36.118Z,76.20
2023-02-02T14:13:38.434Z,80.50
2023-02-02T14:16:09.233Z,79.97
2023-02-02T14:18:57.937Z,81.13
2023-02-02T14:22:04.846Z,80.20
2023-02-02T14:24:46.154Z,78.70
2023-02-02T14:27:54.499Z,79.93
2023-02-02T14:30:29.818Z,77.73
2023-02-02T14:33:40.831Z,80.80
2023-02-02T14:36:17.059Z,77.97
2023-02-02T14:39:12.694Z,81.83
2023-02-02T14:42:16.952Z,82.63
2023-02-02T14:45:15.856Z,78.60
2023-02-02T14:47:49.931Z,80.67
2023-02-02T14:50:23.192Z,81.20
2023-02-02T14:53:03.155Z,80.67
2023-02-02T14:55:32.665Z,80.23
2023-02-02T14:58:03.916Z,81.70
2023-02-02T15:00:34.707Z,79.80
2023-02-02T15:03:35.606Z,79.97
2023-02-02T15:06:08.786Z,79.03
2023-02-02T15:08:38.873Z,82.00
2023-02-02T15:11:26.890Z,76.97
2023-02-02T15:14:07.159Z,82.00
2023-02-02T15:16:38.842Z,77.20
2023-02-02T15:19:23.912Z,79.67
2023-02-02T15:21:56.049Z,78.97
2023-02-02T15:24:28.482Z,78.80
2023-02-02T15:27:00.162Z,79.83
2023-02-02T15:29:39.283Z,82.23
2023-02-02T15:32:08.552Z,78.50
2023-02-02T15:34:43.934Z,79.20
2023-02-02T15:37:17.149Z,81.00
2023-02-02T15:39:49.422Z,81.73
2023-02-02T15:42:38.577Z,85.97
2023-02-02T15:45:07.912Z,84.60
2023-02-02T15:47:42.514Z,83.20
2023-02-02T15:50:20.362Z,86.83
2023-02-02T15:52:50.511Z,83.40
2023-02-02T15:55:26.337Z,85.10
2023-02-02T15:57:55.573Z,85.87
2023-02-02T16:00:27.664Z,83.63
2023-02-02T16:03:01.785Z,86.07
2023-02-02T16:05:47.454Z,81.03
2023-02-02T16:08:19.716Z,84.80
2023-02-02T16:10:50.314Z,85.40
2023-02-02T16:13:28.042Z,89.17
2023-02-02T16:15:58.943Z,89.03
2023-02-02T16:18:28.237Z,91.83
2023-02-02T16:21:00.194Z,95.97
2023-02-02T16:23:34.213Z,88.07
2023-02-02T16:26:06.544Z,97.80
2023-02-02T16:28:36.413Z,95.60
2023-02-02T16:31:05.724Z,92.37
2023-02-02T16:33:39.588Z,95.47
2023-02-02T16:36:25.170Z,95.20
2023-02-02T16:38:56.156Z,97.47
2023-02-02T16:41:32.526Z,97.03
2023-02-02T16:44:32.743Z,98.87
2023-02-02T16:47:01.914Z,106.77
2023-02-02T16:49:32.144Z,103.37
2023-02-02T16:52:19.749Z,118.67
2023-02-02T16:54:53.490Z,113.47
2023-02-02T16:57:27.439Z,111.10
2023-02-02T16:59:58.663Z,108.13
2023-02-02T17:02:31.137Z,109.43
2023-02-02T17:05:04.565Z,112.67
2023-02-02T17:07:35.858Z,110.20
2023-02-02T17:10:22.690Z,110.33
2023-02-02T17:12:52.960Z,165.37
2023-02-02T17:15:34.515Z,142.87
2023-02-02T17:18:05.118Z,121.17
2023-02-02T17:20:34.915Z,119.63
2023-02-02T17:23:10.051Z,114.87
2023-02-02T17:25:42.606Z,119.87
2023-02-02T17:28:14.811Z,118.70
2023-02-02T17:30:44.498Z,116.60
2023-02-02T17:33:14.983Z,116.93
2023-02-02T17:35:54.434Z,112.20
2023-02-02T17:38:25.507Z,112.77
2023-02-02T17:40:55.100Z,114.10
2023-02-02T17:43:25.273Z,111.00
2023-02-02T17:45:54.036Z,115.17
2023-02-02T17:48:23.614Z,109.90
2023-02-02T17:50:52.491Z,114.13
2023-02-02T17:53:23.322Z,114.00
2023-02-02T17:55:53.460Z,113.80
2023-02-02T17:58:22.127Z,113.87
2023-02-02T18:00:55.175Z,113.90
2023-02-02T18:03:27.759Z,111.37
2023-02-02T18:05:57.795Z,115.30
2023-02-02T18:08:26.434Z,112.20
2023-02-02T18:10:55.144Z,115.47
2023-02-02T18:13:25.332Z,118.20
2023-02-02T18:15:56.291Z,117.80
2023-02-02T18:18:25.005Z,114.70
2023-02-02T18:20:53.596Z,114.30
2023-02-02T18:23:24.608Z,132.23
2023-02-02T18:25:53.872Z,132.47
2023-02-02T18:28:22.549Z,126.43
2023-02-02T18:30:51.242Z,129.23
2023-02-02T18:33:23.465Z,133.10
2023-02-02T18:35:52.307Z,131.57
2023-02-02T18:38:21.411Z,168.87
2023-02-02T18:40:57.283Z,140.57
2023-02-02T18:43:25.992Z,134.00
2023-02-02T18:46:00.259Z,132.73
2023-02-02T18:48:31.602Z,134.40
2023-02-02T18:51:00.714Z,128.40
2023-02-02T18:53:29.282Z,124.63
2023-02-02T18:55:58.254Z,120.80
2023-02-02T18:58:27.698Z,117.40
2023-02-02T19:00:56.353Z,117.17
2023-02-02T19:03:24.987Z,109.07
2023-02-02T19:06:15.246Z,118.03
2023-02-02T19:08:45.114Z,121.80
2023-02-02T19:11:17.524Z,122.33
2023-02-02T19:13:47.181Z,118.50
2023-02-02T19:16:21.467Z,117.23
2023-02-02T19:18:51.520Z,124.50
2023-02-02T19:21:21.616Z,123.97
2023-02-02T19:23:50.257Z,117.53
2023-02-02T19:26:24.899Z,112.07
2023-02-02T19:28:54.445Z,114.13
2023-02-02T19:31:31.026Z,130.37
2023-02-02T19:34:01.251Z,132.20
2023-02-02T19:36:34.376Z,129.87
2023-02-02T19:39:12.327Z,130.07
2023-02-02T19:41:43.264Z,122.63
2023-02-02T19:44:18.075Z,120.37
2023-02-02T19:46:49.061Z,126.13
2023-02-02T19:49:24.813Z,121.93
2023-02-02T19:51:56.033Z,121.37
2023-02-02T19:54:30.840Z,119.73
2023-02-02T19:57:01.024Z,115.23
2023-02-02T19:59:36.682Z,116.97
2023-02-02T20:02:43.449Z,115.20
2023-02-02T20:05:23.486Z,116.43
2023-02-02T20:07:59.341Z,117.03
2023-02-02T20:10:30.409Z,122.93
2023-02-02T20:12:59.013Z,124.03
2023-02-02T20:15:34.192Z,140.57
2023-02-02T20:18:06.079Z,132.57
2023-02-02T20:20:40.230Z,126.77
2023-02-02T20:23:23.945Z,125.73
2023-02-02T20:25:52.675Z,121.67
2023-02-02T20:28:34.049Z,128.77
2023-02-02T20:31:05.121Z,131.40
2023-02-02T20:33:34.090Z,122.47
2023-02-02T20:36:03.394Z,125.17
2023-02-02T20:38:39.902Z,122.30
2023-02-02T20:41:08.662Z,127.03
2023-02-02T20:43:37.345Z,127.73
2023-02-02T20:46:06.226Z,131.47
2023-02-02T20:48:35.263Z,137.80
2023-02-02T20:51:03.822Z,137.33
2023-02-02T20:53:32.581Z,150.00
2023-02-02T20:56:03.295Z,151.93
2023-02-02T20:58:32.211Z,143.43
2023-02-02T21:01:05.499Z,136.23
2023-02-02T21:03:34.822Z,142.27
2023-02-02T21:06:03.413Z,145.93
2023-02-02T21:08:32.191Z,147.50
2023-02-02T21:11:03.734Z,147.67
2023-02-02T21:13:32.382Z,140.77
2023-02-02T21:16:00.978Z,139.30
2023-02-02T21:18:29.582Z,134.27
2023-02-02T21:20:58.273Z,135.37
2023-02-02T21:23:27.278Z,129.13
2023-02-02T21:25:55.929Z,130.63
2023-02-02T21:28:26.051Z,130.13
2023-02-02T21:30:54.715Z,130.57
2023-02-02T21:33:23.413Z,137.33
2023-02-02T21:35:52.036Z,163.50
2023-02-02T21:38:20.603Z,149.40
2023-02-02T21:40:50.142Z,134.27
2023-02-02T21:43:20.151Z,156.00
2023-02-02T21:45:53.079Z,143.53
2023-02-02T21:48:34.323Z,137.77
2023-02-02T21:51:20.962Z,143.67
2023-02-02T21:53:49.631Z,140.07
2023-02-02T21:56:31.002Z,143.67
2023-02-02T21:59:00.587Z,139.30
2023-02-02T22:01:37.283Z,139.13
2023-02-02T22:04:13.433Z,141.37
2023-02-02T22:06:45.158Z,143.13
2023-02-02T22:09:19.971Z,146.73
2023-02-02T22:11:52.457Z,143.97
2023-02-02T22:14:28.285Z,136.50
2023-02-02T22:17:00.284Z,139.13
2023-02-02T22:19:34.551Z,140.70
2023-02-02T22:22:18.772Z,132.97
2023-02-02T22:24:59.736Z,130.77
2023-02-02T22:27:41.686Z,130.60
2023-02-02T22:30:21.055Z,134.53
2023-02-02T22:32:51.152Z,134.40
2023-02-02T22:35:19.882Z,136.10
2023-02-02T22:37:48.705Z,133.07
2023-02-02T22:40:17.535Z,130.93
2023-02-02T22:42:46.073Z,134.40
2023-02-02T22:45:14.793Z,135.27
2023-02-02T22:47:43.885Z,137.03
2023-02-02T22:50:14.143Z,143.97
2023-02-02T22:52:42.855Z,138.30
2023-02-02T22:55:12.412Z,145.03
2023-02-02T22:57:41.281Z,140.63
2023-02-02T23:00:12.881Z,149.60
2023-02-02T23:02:42.431Z,136.33
2023-02-02T23:05:14.577Z,138.93
2023-02-02T23:07:44.347Z,140.43
2023-02-02T23:10:15.645Z,140.33
2023-02-02T23:12:44.655Z,146.13
2023-02-02T23:15:14.991Z,146.07
2023-02-02T23:17:43.825Z,150.77
2023-02-02T23:20:15.937Z,146.03
2023-02-02T23:22:44.886Z,146.40
2023-02-02T23:25:14.376Z,142.47
2023-02-02T23:27:43.443Z,139.10
2023-02-02T23:30:14.107Z,143.27
2023-02-02T23:32:42.820Z,139.40
2023-02-02T23:35:11.473Z,142.50
2023-02-02T23:37:41.608Z,139.13
2023-02-02T23:40:11.894Z,138.40
2023-02-02T23:42:40.461Z,136.27
2023-02-02T23:45:09.881Z,139.00
2023-02-02T23:47:38.486Z,131.87
2023-02-02T23:50:10.202Z,136.03
2023-02-02T23:52:40.502Z,138.60
2023-02-02T23:55:10.715Z,140.17
2023-02-02T23:57:39.520Z,147.63
